Kodak, Kentucky
Current Conditions -  °F | °C
As of 5:55 PM on Friday 28 Nov 2014 (Local Time) from KI35 Reporting Station
Clear Clear  
Wind Chill: 34°   Ceiling: Unl
Heat Index: 34°   Visibility: 10mi
Dew Point: 14°   Wind: 3mph
Humidity: 44%   Direction: 80°E
Pressure: 30.24"   Gusts: NA
Location:  37.1842°N, 83.1053°W
Report Text: KI35 282255Z AUTO 08003KT 10SM CLR 01/M10 A3024 RMK AO1
Loading
Personal Weather Stations






























Interactive Weather Map New forecast layout! Learn more

10-Day Weather Forecast

Advertisements
Track Severe Weather on mobile